FARA weather

Petit Airport
Daveyton, Gauteng, South Africa

Public forecast

Using degrees Celsius for public forecast. Weather courtesy of forecast.io.

METAR (pilot weather report)

Closest report is OR Tambo International Airport, 8.4 nm (15.6 km) WSW. Retrieved 2019/05/24 10:30 UTC (0 seconds ago):

FAOR 241030Z 34008KT 250V010 CAVOK 17/10 Q1031 NOSIG

TAF (pilot weather forecast)

Closest forecast is OR Tambo International Airport, 8.4 nm (15.6 km) WSW. Retrieved 2019/05/24 06:00 UTC (4 hours ago):

TAF FAOR 240400Z 2406/2512 VRB03KT CAVOK TX23/2512Z TN08/2505Z BECMG 2407/2409 33008KT BECMG 2410/2412 26008KT FEW040TCU PROB30 TEMPO 2413/2418 -TSRA FEW040CB BECMG 2414/2416 18008KT PROB40 TEMPO 2418/2424 5000 TSRA FEW040CB FM250000 VRB03KT CAVOK PROB30 TEMPO 2504/2506 5000 BR NSC